sensor_id;sensor_type;location;lat;lon;timestamp;P1;durP1;ratioP1;P2;durP2;ratioP2
65289;SDS011;51893;59.754;10.110;2023-07-13T00:01:16;1.80;;;1.70;;
65289;SDS011;51893;59.754;10.110;2023-07-13T00:03:44;3.80;;;1.80;;
65289;SDS011;51893;59.754;10.110;2023-07-13T00:06:14;4.10;;;1.70;;
65289;SDS011;51893;59.754;10.110;2023-07-13T00:08:43;7.50;;;1.90;;
65289;SDS011;51893;59.754;10.110;2023-07-13T00:11:12;3.80;;;1.70;;
65289;SDS011;51893;59.754;10.110;2023-07-13T00:13:41;3.90;;;1.40;;
65289;SDS011;51893;59.754;10.110;2023-07-13T00:16:13;6.70;;;2.60;;
65289;SDS011;51893;59.754;10.110;2023-07-13T00:18:41;7.50;;;1.80;;
65289;SDS011;51893;59.754;10.110;2023-07-13T00:21:10;6.10;;;1.80;;
65289;SDS011;51893;59.754;10.110;2023-07-13T00:23:40;9.00;;;2.30;;
65289;SDS011;51893;59.754;10.110;2023-07-13T00:26:11;7.40;;;2.70;;
65289;SDS011;51893;59.754;10.110;2023-07-13T00:28:42;6.90;;;2.70;;
65289;SDS011;51893;59.754;10.110;2023-07-13T00:31:11;4.00;;;2.30;;
65289;SDS011;51893;59.754;10.110;2023-07-13T00:33:42;13.30;;;2.80;;
65289;SDS011;51893;59.754;10.110;2023-07-13T00:36:11;6.20;;;3.00;;
65289;SDS011;51893;59.754;10.110;2023-07-13T00:38:40;5.40;;;2.80;;
65289;SDS011;51893;59.754;10.110;2023-07-13T00:41:09;7.60;;;2.60;;
65289;SDS011;51893;59.754;10.110;2023-07-13T00:43:40;6.10;;;2.60;;
65289;SDS011;51893;59.754;10.110;2023-07-13T00:46:13;7.70;;;2.90;;
65289;SDS011;51893;59.754;10.110;2023-07-13T00:48:42;5.80;;;2.00;;
65289;SDS011;51893;59.754;10.110;2023-07-13T00:51:16;3.80;;;1.80;;
65289;SDS011;51893;59.754;10.110;2023-07-13T00:53:47;4.50;;;1.80;;
65289;SDS011;51893;59.754;10.110;2023-07-13T00:56:15;3.60;;;1.70;;
65289;SDS011;51893;59.754;10.110;2023-07-13T00:58:44;2.60;;;1.90;;
65289;SDS011;51893;59.754;10.110;2023-07-13T01:01:13;6.60;;;2.00;;
65289;SDS011;51893;59.754;10.110;2023-07-13T01:03:43;5.00;;;1.90;;
65289;SDS011;51893;59.754;10.110;2023-07-13T01:06:11;6.10;;;2.00;;
65289;SDS011;51893;59.754;10.110;2023-07-13T01:08:39;3.80;;;2.20;;
65289;SDS011;51893;59.754;10.110;2023-07-13T01:11:07;4.30;;;2.20;;
65289;SDS011;51893;59.754;10.110;2023-07-13T01:13:35;7.00;;;2.00;;
65289;SDS011;51893;59.754;10.110;2023-07-13T01:16:13;7.30;;;2.40;;
65289;SDS011;51893;59.754;10.110;2023-07-13T01:18:47;6.80;;;2.50;;
65289;SDS011;51893;59.754;10.110;2023-07-13T01:21:15;6.00;;;2.50;;
65289;SDS011;51893;59.754;10.110;2023-07-13T01:23:43;5.00;;;2.60;;
65289;SDS011;51893;59.754;10.110;2023-07-13T01:26:12;5.80;;;2.40;;
65289;SDS011;51893;59.754;10.110;2023-07-13T01:28:40;10.80;;;2.30;;
65289;SDS011;51893;59.754;10.110;2023-07-13T01:31:09;5.50;;;2.00;;
65289;SDS011;51893;59.754;10.110;2023-07-13T01:33:41;4.60;;;2.70;;
65289;SDS011;51893;59.754;10.110;2023-07-13T01:36:11;3.50;;;2.50;;
65289;SDS011;51893;59.754;10.110;2023-07-13T01:38:39;8.00;;;2.50;;
65289;SDS011;51893;59.754;10.110;2023-07-13T01:41:11;11.40;;;2.70;;
65289;SDS011;51893;59.754;10.110;2023-07-13T01:43:39;2.80;;;2.00;;
65289;SDS011;51893;59.754;10.110;2023-07-13T01:46:07;3.60;;;2.10;;
65289;SDS011;51893;59.754;10.110;2023-07-13T01:48:50;6.60;;;2.20;;
65289;SDS011;51893;59.754;10.110;2023-07-13T01:51:19;8.90;;;2.70;;
65289;SDS011;51893;59.754;10.110;2023-07-13T01:53:48;4.50;;;1.90;;
65289;SDS011;51893;59.754;10.110;2023-07-13T01:56:18;6.90;;;2.00;;
65289;SDS011;51893;59.754;10.110;2023-07-13T01:58:47;4.70;;;2.10;;
65289;SDS011;51893;59.754;10.110;2023-07-13T02:01:15;5.00;;;1.90;;
65289;SDS011;51893;59.754;10.110;2023-07-13T02:03:43;3.40;;;1.60;;
65289;SDS011;51893;59.754;10.110;2023-07-13T02:06:12;7.50;;;1.90;;
65289;SDS011;51893;59.754;10.110;2023-07-13T02:08:41;5.00;;;1.80;;
65289;SDS011;51893;59.754;10.110;2023-07-13T02:11:10;4.50;;;2.20;;
65289;SDS011;51893;59.754;10.110;2023-07-13T02:13:39;3.60;;;2.00;;
65289;SDS011;51893;59.754;10.110;2023-07-13T02:16:07;7.00;;;2.00;;
65289;SDS011;51893;59.754;10.110;2023-07-13T02:18:35;5.40;;;1.90;;
65289;SDS011;51893;59.754;10.110;2023-07-13T02:21:06;2.70;;;1.40;;
65289;SDS011;51893;59.754;10.110;2023-07-13T02:23:34;5.30;;;1.50;;
65289;SDS011;51893;59.754;10.110;2023-07-13T02:26:03;5.40;;;1.60;;
65289;SDS011;51893;59.754;10.110;2023-07-13T02:28:32;4.30;;;1.70;;
65289;SDS011;51893;59.754;10.110;2023-07-13T02:31:08;3.30;;;1.50;;
65289;SDS011;51893;59.754;10.110;2023-07-13T02:33:38;4.50;;;1.70;;
65289;SDS011;51893;59.754;10.110;2023-07-13T02:36:07;5.20;;;1.90;;
65289;SDS011;51893;59.754;10.110;2023-07-13T02:38:36;6.60;;;2.20;;
65289;SDS011;51893;59.754;10.110;2023-07-13T02:41:06;4.40;;;2.00;;
65289;SDS011;51893;59.754;10.110;2023-07-13T02:43:37;2.90;;;1.90;;
65289;SDS011;51893;59.754;10.110;2023-07-13T02:46:05;4.50;;;2.00;;
65289;SDS011;51893;59.754;10.110;2023-07-13T02:48:38;5.30;;;1.80;;
65289;SDS011;51893;59.754;10.110;2023-07-13T02:51:07;4.50;;;1.70;;
65289;SDS011;51893;59.754;10.110;2023-07-13T02:53:36;5.60;;;1.90;;
65289;SDS011;51893;59.754;10.110;2023-07-13T02:56:06;5.30;;;2.40;;
65289;SDS011;51893;59.754;10.110;2023-07-13T02:58:35;9.00;;;2.00;;
65289;SDS011;51893;59.754;10.110;2023-07-13T03:01:09;3.30;;;2.10;;
65289;SDS011;51893;59.754;10.110;2023-07-13T03:03:38;7.40;;;2.20;;
65289;SDS011;51893;59.754;10.110;2023-07-13T03:06:07;6.10;;;2.20;;
65289;SDS011;51893;59.754;10.110;2023-07-13T03:08:37;2.30;;;2.00;;
65289;SDS011;51893;59.754;10.110;2023-07-13T03:11:08;3.10;;;1.60;;
65289;SDS011;51893;59.754;10.110;2023-07-13T03:13:40;2.60;;;1.80;;
65289;SDS011;51893;59.754;10.110;2023-07-13T03:16:10;2.60;;;1.40;;
65289;SDS011;51893;59.754;10.110;2023-07-13T03:18:42;3.50;;;1.50;;
65289;SDS011;51893;59.754;10.110;2023-07-13T03:21:10;5.50;;;1.60;;
65289;SDS011;51893;59.754;10.110;2023-07-13T03:23:38;2.70;;;1.70;;
65289;SDS011;51893;59.754;10.110;2023-07-13T03:26:11;3.80;;;1.70;;
65289;SDS011;51893;59.754;10.110;2023-07-13T03:28:42;3.40;;;1.60;;
65289;SDS011;51893;59.754;10.110;2023-07-13T03:31:14;5.80;;;1.70;;
65289;SDS011;51893;59.754;10.110;2023-07-13T03:33:44;4.60;;;1.60;;
65289;SDS011;51893;59.754;10.110;2023-07-13T03:36:19;7.80;;;1.40;;
65289;SDS011;51893;59.754;10.110;2023-07-13T03:38:51;4.60;;;1.80;;
65289;SDS011;51893;59.754;10.110;2023-07-13T03:41:22;4.80;;;1.60;;
65289;SDS011;51893;59.754;10.110;2023-07-13T03:43:52;2.60;;;1.70;;
65289;SDS011;51893;59.754;10.110;2023-07-13T03:46:21;4.00;;;1.70;;
65289;SDS011;51893;59.754;10.110;2023-07-13T03:48:49;2.50;;;1.40;;
65289;SDS011;51893;59.754;10.110;2023-07-13T03:51:17;6.90;;;1.60;;
65289;SDS011;51893;59.754;10.110;2023-07-13T03:53:47;4.50;;;1.80;;
65289;SDS011;51893;59.754;10.110;2023-07-13T03:56:17;1.70;;;1.60;;
65289;SDS011;51893;59.754;10.110;2023-07-13T03:58:48;5.40;;;1.50;;
65289;SDS011;51893;59.754;10.110;2023-07-13T04:01:19;11.20;;;2.20;;
65289;SDS011;51893;59.754;10.110;2023-07-13T04:03:49;2.80;;;1.80;;
65289;SDS011;51893;59.754;10.110;2023-07-13T04:06:25;2.40;;;1.50;;
65289;SDS011;51893;59.754;10.110;2023-07-13T04:08:57;3.60;;;1.50;;
65289;SDS011;51893;59.754;10.110;2023-07-13T04:11:29;4.00;;;1.30;;
65289;SDS011;51893;59.754;10.110;2023-07-13T04:13:59;3.80;;;2.00;;
65289;SDS011;51893;59.754;10.110;2023-07-13T04:16:28;3.90;;;1.30;;
65289;SDS011;51893;59.754;10.110;2023-07-13T04:18:57;4.80;;;1.20;;
65289;SDS011;51893;59.754;10.110;2023-07-13T04:21:30;5.10;;;1.30;;
65289;SDS011;51893;59.754;10.110;2023-07-13T04:23:58;1.80;;;1.40;;
65289;SDS011;51893;59.754;10.110;2023-07-13T04:26:27;1.50;;;1.40;;
65289;SDS011;51893;59.754;10.110;2023-07-13T04:28:57;3.20;;;1.30;;
65289;SDS011;51893;59.754;10.110;2023-07-13T04:31:25;2.70;;;1.70;;
65289;SDS011;51893;59.754;10.110;2023-07-13T04:33:54;5.00;;;1.40;;
65289;SDS011;51893;59.754;10.110;2023-07-13T04:36:22;4.50;;;1.40;;
65289;SDS011;51893;59.754;10.110;2023-07-13T04:38:50;5.10;;;1.40;;
65289;SDS011;51893;59.754;10.110;2023-07-13T04:41:21;2.30;;;1.30;;
65289;SDS011;51893;59.754;10.110;2023-07-13T04:43:49;4.50;;;1.30;;
65289;SDS011;51893;59.754;10.110;2023-07-13T04:46:17;3.40;;;1.20;;
65289;SDS011;51893;59.754;10.110;2023-07-13T04:48:49;7.20;;;1.60;;
65289;SDS011;51893;59.754;10.110;2023-07-13T04:51:21;6.70;;;1.40;;
65289;SDS011;51893;59.754;10.110;2023-07-13T04:53:49;2.80;;;1.20;;
65289;SDS011;51893;59.754;10.110;2023-07-13T04:56:25;1.50;;;1.30;;
65289;SDS011;51893;59.754;10.110;2023-07-13T04:58:53;4.00;;;1.20;;
65289;SDS011;51893;59.754;10.110;2023-07-13T05:01:21;4.30;;;1.40;;
65289;SDS011;51893;59.754;10.110;2023-07-13T05:03:50;3.20;;;1.20;;
65289;SDS011;51893;59.754;10.110;2023-07-13T05:06:20;2.70;;;1.20;;
65289;SDS011;51893;59.754;10.110;2023-07-13T05:08:48;2.60;;;1.50;;
65289;SDS011;51893;59.754;10.110;2023-07-13T05:11:18;2.70;;;1.10;;
65289;SDS011;51893;59.754;10.110;2023-07-13T05:13:46;3.20;;;1.00;;
65289;SDS011;51893;59.754;10.110;2023-07-13T05:16:14;1.80;;;1.10;;
65289;SDS011;51893;59.754;10.110;2023-07-13T05:18:42;2.10;;;1.10;;
65289;SDS011;51893;59.754;10.110;2023-07-13T05:21:11;2.50;;;1.20;;
65289;SDS011;51893;59.754;10.110;2023-07-13T05:23:40;0.90;;;0.90;;
65289;SDS011;51893;59.754;10.110;2023-07-13T05:26:11;1.10;;;1.00;;
65289;SDS011;51893;59.754;10.110;2023-07-13T05:28:39;2.60;;;1.10;;
65289;SDS011;51893;59.754;10.110;2023-07-13T05:31:10;8.00;;;1.40;;
65289;SDS011;51893;59.754;10.110;2023-07-13T05:33:41;2.20;;;1.00;;
65289;SDS011;51893;59.754;10.110;2023-07-13T05:36:09;1.10;;;0.90;;
65289;SDS011;51893;59.754;10.110;2023-07-13T05:38:37;1.20;;;0.90;;
65289;SDS011;51893;59.754;10.110;2023-07-13T05:41:06;2.20;;;1.00;;
65289;SDS011;51893;59.754;10.110;2023-07-13T05:43:35;2.30;;;1.00;;
65289;SDS011;51893;59.754;10.110;2023-07-13T05:46:03;2.20;;;0.90;;
65289;SDS011;51893;59.754;10.110;2023-07-13T05:48:32;1.10;;;1.00;;
65289;SDS011;51893;59.754;10.110;2023-07-13T05:51:01;2.00;;;0.90;;
65289;SDS011;51893;59.754;10.110;2023-07-13T05:53:30;4.90;;;1.20;;
65289;SDS011;51893;59.754;10.110;2023-07-13T05:55:58;1.20;;;1.00;;
65289;SDS011;51893;59.754;10.110;2023-07-13T05:58:29;5.40;;;0.80;;
65289;SDS011;51893;59.754;10.110;2023-07-13T06:01:02;1.50;;;0.90;;
65289;SDS011;51893;59.754;10.110;2023-07-13T06:03:33;5.80;;;1.10;;
65289;SDS011;51893;59.754;10.110;2023-07-13T06:06:01;1.50;;;0.70;;
65289;SDS011;51893;59.754;10.110;2023-07-13T06:08:30;0.80;;;0.80;;
65289;SDS011;51893;59.754;10.110;2023-07-13T06:11:03;1.10;;;0.70;;
65289;SDS011;51893;59.754;10.110;2023-07-13T06:13:33;3.00;;;1.00;;
65289;SDS011;51893;59.754;10.110;2023-07-13T06:16:03;1.70;;;0.90;;
65289;SDS011;51893;59.754;10.110;2023-07-13T06:18:33;1.00;;;0.90;;
65289;SDS011;51893;59.754;10.110;2023-07-13T06:21:10;30.30;;;1.50;;
65289;SDS011;51893;59.754;10.110;2023-07-13T06:23:42;1.40;;;0.70;;
65289;SDS011;51893;59.754;10.110;2023-07-13T06:26:11;1.50;;;0.90;;
65289;SDS011;51893;59.754;10.110;2023-07-13T06:28:39;0.80;;;0.80;;
65289;SDS011;51893;59.754;10.110;2023-07-13T06:31:09;0.90;;;0.80;;
65289;SDS011;51893;59.754;10.110;2023-07-13T06:33:40;1.20;;;0.70;;
65289;SDS011;51893;59.754;10.110;2023-07-13T06:36:09;0.90;;;0.70;;
65289;SDS011;51893;59.754;10.110;2023-07-13T06:38:38;0.70;;;0.70;;
65289;SDS011;51893;59.754;10.110;2023-07-13T06:41:07;0.80;;;0.80;;
65289;SDS011;51893;59.754;10.110;2023-07-13T06:43:37;3.10;;;0.60;;
65289;SDS011;51893;59.754;10.110;2023-07-13T06:46:05;0.70;;;0.60;;
65289;SDS011;51893;59.754;10.110;2023-07-13T06:48:33;0.80;;;0.80;;
65289;SDS011;51893;59.754;10.110;2023-07-13T06:51:02;0.50;;;0.50;;
65289;SDS011;51893;59.754;10.110;2023-07-13T06:53:30;2.80;;;0.70;;
65289;SDS011;51893;59.754;10.110;2023-07-13T06:55:58;2.10;;;0.60;;
65289;SDS011;51893;59.754;10.110;2023-07-13T06:58:27;0.90;;;0.60;;
65289;SDS011;51893;59.754;10.110;2023-07-13T07:00:55;0.80;;;0.80;;
65289;SDS011;51893;59.754;10.110;2023-07-13T07:03:23;0.80;;;0.70;;
65289;SDS011;51893;59.754;10.110;2023-07-13T07:05:51;1.30;;;0.70;;
65289;SDS011;51893;59.754;10.110;2023-07-13T07:08:19;1.40;;;0.80;;
65289;SDS011;51893;59.754;10.110;2023-07-13T07:10:49;2.30;;;0.70;;
65289;SDS011;51893;59.754;10.110;2023-07-13T07:13:22;1.20;;;0.80;;
65289;SDS011;51893;59.754;10.110;2023-07-13T07:15:50;1.60;;;0.70;;
65289;SDS011;51893;59.754;10.110;2023-07-13T07:18:19;6.10;;;0.80;;
65289;SDS011;51893;59.754;10.110;2023-07-13T07:20:49;1.00;;;0.90;;
65289;SDS011;51893;59.754;10.110;2023-07-13T07:23:17;0.80;;;0.50;;
65289;SDS011;51893;59.754;10.110;2023-07-13T07:25:46;1.20;;;0.60;;
65289;SDS011;51893;59.754;10.110;2023-07-13T07:28:16;1.10;;;0.80;;
65289;SDS011;51893;59.754;10.110;2023-07-13T07:30:51;2.40;;;0.70;;
65289;SDS011;51893;59.754;10.110;2023-07-13T07:33:41;4.70;;;0.70;;
65289;SDS011;51893;59.754;10.110;2023-07-13T07:36:09;0.90;;;0.60;;
65289;SDS011;51893;59.754;10.110;2023-07-13T07:38:41;3.20;;;0.70;;
65289;SDS011;51893;59.754;10.110;2023-07-13T07:41:10;2.90;;;0.80;;
65289;SDS011;51893;59.754;10.110;2023-07-13T07:43:43;2.90;;;0.70;;
65289;SDS011;51893;59.754;10.110;2023-07-13T07:46:11;1.40;;;0.60;;
65289;SDS011;51893;59.754;10.110;2023-07-13T07:48:40;1.50;;;0.60;;
65289;SDS011;51893;59.754;10.110;2023-07-13T07:51:08;2.00;;;0.70;;
65289;SDS011;51893;59.754;10.110;2023-07-13T07:53:36;1.30;;;0.60;;
65289;SDS011;51893;59.754;10.110;2023-07-13T07:56:04;4.60;;;0.60;;
65289;SDS011;51893;59.754;10.110;2023-07-13T07:58:52;3.10;;;0.90;;
65289;SDS011;51893;59.754;10.110;2023-07-13T08:01:23;0.90;;;0.70;;
65289;SDS011;51893;59.754;10.110;2023-07-13T08:03:54;1.30;;;0.70;;
65289;SDS011;51893;59.754;10.110;2023-07-13T08:06:26;1.10;;;0.60;;
65289;SDS011;51893;59.754;10.110;2023-07-13T08:08:57;1.00;;;0.40;;
65289;SDS011;51893;59.754;10.110;2023-07-13T08:11:25;10.40;;;0.80;;
65289;SDS011;51893;59.754;10.110;2023-07-13T08:13:56;3.00;;;0.60;;
65289;SDS011;51893;59.754;10.110;2023-07-13T08:16:24;5.00;;;0.60;;
65289;SDS011;51893;59.754;10.110;2023-07-13T08:18:52;1.40;;;0.50;;
65289;SDS011;51893;59.754;10.110;2023-07-13T08:21:20;1.00;;;0.70;;
65289;SDS011;51893;59.754;10.110;2023-07-13T08:23:49;2.00;;;0.50;;
65289;SDS011;51893;59.754;10.110;2023-07-13T08:26:17;0.90;;;0.40;;
65289;SDS011;51893;59.754;10.110;2023-07-13T08:28:45;2.40;;;0.60;;
65289;SDS011;51893;59.754;10.110;2023-07-13T08:31:13;2.70;;;0.60;;
65289;SDS011;51893;59.754;10.110;2023-07-13T08:33:43;3.20;;;0.60;;
65289;SDS011;51893;59.754;10.110;2023-07-13T08:36:11;10.60;;;0.80;;
65289;SDS011;51893;59.754;10.110;2023-07-13T08:38:40;1.50;;;0.60;;
65289;SDS011;51893;59.754;10.110;2023-07-13T08:41:16;3.00;;;0.50;;
65289;SDS011;51893;59.754;10.110;2023-07-13T08:43:49;2.30;;;0.50;;
65289;SDS011;51893;59.754;10.110;2023-07-13T08:46:34;0.90;;;0.50;;
65289;SDS011;51893;59.754;10.110;2023-07-13T08:49:13;0.40;;;0.40;;
65289;SDS011;51893;59.754;10.110;2023-07-13T08:51:49;1.80;;;0.60;;
65289;SDS011;51893;59.754;10.110;2023-07-13T08:56:57;0.50;;;0.50;;
65289;SDS011;51893;59.754;10.110;2023-07-13T08:59:31;1.80;;;0.70;;
65289;SDS011;51893;59.754;10.110;2023-07-13T09:05:12;0.50;;;0.40;;
65289;SDS011;51893;59.754;10.110;2023-07-13T09:08:04;0.90;;;0.40;;
65289;SDS011;51893;59.754;10.110;2023-07-13T09:11:07;2.50;;;0.60;;
65289;SDS011;51893;59.754;10.110;2023-07-13T09:16:34;1.40;;;0.50;;
65289;SDS011;51893;59.754;10.110;2023-07-13T09:19:20;3.10;;;0.50;;
65289;SDS011;51893;59.754;10.110;2023-07-13T09:21:54;0.90;;;0.40;;
65289;SDS011;51893;59.754;10.110;2023-07-13T09:24:38;1.00;;;0.60;;
65289;SDS011;51893;59.754;10.110;2023-07-13T09:27:22;0.60;;;0.40;;
65289;SDS011;51893;59.754;10.110;2023-07-13T09:32:48;19.90;;;1.30;;
65289;SDS011;51893;59.754;10.110;2023-07-13T09:35:22;0.80;;;0.50;;
65289;SDS011;51893;59.754;10.110;2023-07-13T09:38:18;1.60;;;0.50;;
65289;SDS011;51893;59.754;10.110;2023-07-13T09:40:56;1.80;;;0.40;;
65289;SDS011;51893;59.754;10.110;2023-07-13T09:43:31;0.60;;;0.40;;
65289;SDS011;51893;59.754;10.110;2023-07-13T09:45:59;0.40;;;0.40;;
65289;SDS011;51893;59.754;10.110;2023-07-13T09:48:34;3.20;;;0.50;;
65289;SDS011;51893;59.754;10.110;2023-07-13T09:51:13;2.20;;;0.40;;
65289;SDS011;51893;59.754;10.110;2023-07-13T09:53:43;2.30;;;0.40;;
65289;SDS011;51893;59.754;10.110;2023-07-13T09:56:23;1.60;;;0.40;;
65289;SDS011;51893;59.754;10.110;2023-07-13T09:58:55;2.30;;;0.50;;
65289;SDS011;51893;59.754;10.110;2023-07-13T10:01:36;1.10;;;0.50;;
65289;SDS011;51893;59.754;10.110;2023-07-13T10:04:12;5.30;;;0.40;;
65289;SDS011;51893;59.754;10.110;2023-07-13T10:06:44;0.50;;;0.40;;
65289;SDS011;51893;59.754;10.110;2023-07-13T10:09:16;2.30;;;0.50;;
65289;SDS011;51893;59.754;10.110;2023-07-13T10:11:45;0.50;;;0.50;;
65289;SDS011;51893;59.754;10.110;2023-07-13T10:14:21;0.80;;;0.50;;
65289;SDS011;51893;59.754;10.110;2023-07-13T10:16:58;0.40;;;0.40;;
65289;SDS011;51893;59.754;10.110;2023-07-13T10:19:34;1.80;;;0.40;;
65289;SDS011;51893;59.754;10.110;2023-07-13T10:22:24;0.30;;;0.30;;
65289;SDS011;51893;59.754;10.110;2023-07-13T10:27:34;0.90;;;0.40;;
65289;SDS011;51893;59.754;10.110;2023-07-13T10:30:20;2.40;;;0.40;;
65289;SDS011;51893;59.754;10.110;2023-07-13T10:33:02;2.10;;;0.40;;
65289;SDS011;51893;59.754;10.110;2023-07-13T10:35:33;0.40;;;0.30;;
65289;SDS011;51893;59.754;10.110;2023-07-13T10:38:11;3.10;;;0.40;;
65289;SDS011;51893;59.754;10.110;2023-07-13T10:40:48;0.90;;;0.40;;
65289;SDS011;51893;59.754;10.110;2023-07-13T10:43:43;3.00;;;0.50;;
65289;SDS011;51893;59.754;10.110;2023-07-13T10:46:17;2.10;;;0.70;;
65289;SDS011;51893;59.754;10.110;2023-07-13T10:48:52;2.30;;;0.40;;
65289;SDS011;51893;59.754;10.110;2023-07-13T10:51:26;0.40;;;0.40;;
65289;SDS011;51893;59.754;10.110;2023-07-13T10:59:40;0.40;;;0.40;;
65289;SDS011;51893;59.754;10.110;2023-07-13T11:02:15;0.80;;;0.40;;
65289;SDS011;51893;59.754;10.110;2023-07-13T11:04:53;0.30;;;0.30;;
65289;SDS011;51893;59.754;10.110;2023-07-13T11:10:00;0.40;;;0.40;;
65289;SDS011;51893;59.754;10.110;2023-07-13T11:12:51;0.90;;;0.30;;
65289;SDS011;51893;59.754;10.110;2023-07-13T11:15:44;0.20;;;0.20;;
65289;SDS011;51893;59.754;10.110;2023-07-13T11:18:23;0.30;;;0.30;;
65289;SDS011;51893;59.754;10.110;2023-07-13T11:21:12;0.40;;;0.30;;
65289;SDS011;51893;59.754;10.110;2023-07-13T11:24:15;1.60;;;0.40;;
65289;SDS011;51893;59.754;10.110;2023-07-13T11:32:10;3.40;;;0.50;;
65289;SDS011;51893;59.754;10.110;2023-07-13T11:34:51;1.70;;;0.30;;
65289;SDS011;51893;59.754;10.110;2023-07-13T11:37:19;0.50;;;0.30;;
65289;SDS011;51893;59.754;10.110;2023-07-13T11:39:51;1.20;;;0.40;;
65289;SDS011;51893;59.754;10.110;2023-07-13T11:42:20;2.90;;;0.40;;
65289;SDS011;51893;59.754;10.110;2023-07-13T11:44:50;2.30;;;0.40;;
65289;SDS011;51893;59.754;10.110;2023-07-13T11:47:40;0.40;;;0.30;;
65289;SDS011;51893;59.754;10.110;2023-07-13T11:50:21;1.70;;;0.50;;
65289;SDS011;51893;59.754;10.110;2023-07-13T11:52:53;1.20;;;0.30;;
65289;SDS011;51893;59.754;10.110;2023-07-13T11:55:24;1.30;;;0.20;;
65289;SDS011;51893;59.754;10.110;2023-07-13T11:57:58;0.50;;;0.40;;
65289;SDS011;51893;59.754;10.110;2023-07-13T12:00:30;16.70;;;1.50;;
65289;SDS011;51893;59.754;10.110;2023-07-13T12:03:03;2.90;;;0.50;;
65289;SDS011;51893;59.754;10.110;2023-07-13T12:05:33;21.50;;;1.90;;
65289;SDS011;51893;59.754;10.110;2023-07-13T12:08:09;5.20;;;0.60;;
65289;SDS011;51893;59.754;10.110;2023-07-13T12:10:58;4.20;;;0.50;;
65289;SDS011;51893;59.754;10.110;2023-07-13T12:13:27;5.50;;;0.50;;
65289;SDS011;51893;59.754;10.110;2023-07-13T12:15:57;2.00;;;0.40;;
65289;SDS011;51893;59.754;10.110;2023-07-13T12:18:30;13.80;;;1.00;;
65289;SDS011;51893;59.754;10.110;2023-07-13T12:20:59;0.90;;;0.30;;
65289;SDS011;51893;59.754;10.110;2023-07-13T12:23:30;1.90;;;0.40;;
65289;SDS011;51893;59.754;10.110;2023-07-13T12:26:05;1.80;;;0.30;;
65289;SDS011;51893;59.754;10.110;2023-07-13T12:28:36;0.90;;;0.40;;
65289;SDS011;51893;59.754;10.110;2023-07-13T12:31:24;2.40;;;0.50;;
65289;SDS011;51893;59.754;10.110;2023-07-13T12:34:00;11.80;;;0.70;;
65289;SDS011;51893;59.754;10.110;2023-07-13T12:36:32;0.50;;;0.40;;
65289;SDS011;51893;59.754;10.110;2023-07-13T12:41:48;0.70;;;0.50;;
65289;SDS011;51893;59.754;10.110;2023-07-13T12:44:27;5.90;;;0.60;;
65289;SDS011;51893;59.754;10.110;2023-07-13T12:47:03;0.50;;;0.30;;
65289;SDS011;51893;59.754;10.110;2023-07-13T12:49:44;1.90;;;0.30;;
65289;SDS011;51893;59.754;10.110;2023-07-13T12:52:28;0.40;;;0.30;;
65289;SDS011;51893;59.754;10.110;2023-07-13T12:55:05;0.60;;;0.40;;
65289;SDS011;51893;59.754;10.110;2023-07-13T12:57:55;0.40;;;0.30;;
65289;SDS011;51893;59.754;10.110;2023-07-13T13:00:30;1.30;;;0.50;;
65289;SDS011;51893;59.754;10.110;2023-07-13T13:03:05;3.70;;;0.40;;
65289;SDS011;51893;59.754;10.110;2023-07-13T13:06:19;0.90;;;0.50;;
65289;SDS011;51893;59.754;10.110;2023-07-13T13:08:52;3.90;;;0.60;;
65289;SDS011;51893;59.754;10.110;2023-07-13T13:11:23;0.30;;;0.30;;
65289;SDS011;51893;59.754;10.110;2023-07-13T13:13:53;0.40;;;0.40;;
65289;SDS011;51893;59.754;10.110;2023-07-13T13:19:19;0.30;;;0.20;;
65289;SDS011;51893;59.754;10.110;2023-07-13T13:21:54;2.10;;;0.60;;
65289;SDS011;51893;59.754;10.110;2023-07-13T13:24:27;1.60;;;0.30;;
65289;SDS011;51893;59.754;10.110;2023-07-13T13:26:57;1.10;;;0.50;;
65289;SDS011;51893;59.754;10.110;2023-07-13T13:29:25;1.20;;;0.40;;
65289;SDS011;51893;59.754;10.110;2023-07-13T13:31:54;0.60;;;0.30;;
65289;SDS011;51893;59.754;10.110;2023-07-13T13:34:24;0.90;;;0.40;;
65289;SDS011;51893;59.754;10.110;2023-07-13T13:36:54;0.60;;;0.40;;
65289;SDS011;51893;59.754;10.110;2023-07-13T13:39:35;0.40;;;0.40;;
65289;SDS011;51893;59.754;10.110;2023-07-13T13:42:05;0.30;;;0.30;;
65289;SDS011;51893;59.754;10.110;2023-07-13T13:44:33;0.50;;;0.40;;
65289;SDS011;51893;59.754;10.110;2023-07-13T13:47:01;0.80;;;0.40;;
65289;SDS011;51893;59.754;10.110;2023-07-13T13:49:30;0.60;;;0.30;;
65289;SDS011;51893;59.754;10.110;2023-07-13T13:51:58;0.60;;;0.40;;
65289;SDS011;51893;59.754;10.110;2023-07-13T13:54:27;0.70;;;0.20;;
65289;SDS011;51893;59.754;10.110;2023-07-13T13:56:55;0.80;;;0.40;;
65289;SDS011;51893;59.754;10.110;2023-07-13T13:59:23;0.40;;;0.40;;
65289;SDS011;51893;59.754;10.110;2023-07-13T14:01:51;3.70;;;0.30;;
65289;SDS011;51893;59.754;10.110;2023-07-13T14:04:21;2.60;;;0.30;;
65289;SDS011;51893;59.754;10.110;2023-07-13T14:06:51;2.70;;;0.60;;
65289;SDS011;51893;59.754;10.110;2023-07-13T14:09:19;2.50;;;0.40;;
65289;SDS011;51893;59.754;10.110;2023-07-13T14:11:49;7.40;;;0.70;;
65289;SDS011;51893;59.754;10.110;2023-07-13T14:14:21;2.00;;;0.40;;
65289;SDS011;51893;59.754;10.110;2023-07-13T14:16:51;0.50;;;0.30;;
65289;SDS011;51893;59.754;10.110;2023-07-13T14:19:22;2.70;;;0.30;;
65289;SDS011;51893;59.754;10.110;2023-07-13T14:21:51;0.20;;;0.20;;
65289;SDS011;51893;59.754;10.110;2023-07-13T14:24:22;1.70;;;0.30;;
65289;SDS011;51893;59.754;10.110;2023-07-13T14:26:50;0.20;;;0.20;;
65289;SDS011;51893;59.754;10.110;2023-07-13T14:29:19;0.30;;;0.30;;
65289;SDS011;51893;59.754;10.110;2023-07-13T14:31:51;2.40;;;0.30;;
65289;SDS011;51893;59.754;10.110;2023-07-13T14:34:20;0.30;;;0.30;;
65289;SDS011;51893;59.754;10.110;2023-07-13T14:36:50;0.10;;;0.10;;
65289;SDS011;51893;59.754;10.110;2023-07-13T14:39:22;2.50;;;0.30;;
65289;SDS011;51893;59.754;10.110;2023-07-13T14:41:54;1.00;;;0.20;;
65289;SDS011;51893;59.754;10.110;2023-07-13T14:44:28;0.20;;;0.20;;
65289;SDS011;51893;59.754;10.110;2023-07-13T14:46:59;19.20;;;1.30;;
65289;SDS011;51893;59.754;10.110;2023-07-13T14:49:37;0.70;;;0.30;;
65289;SDS011;51893;59.754;10.110;2023-07-13T14:52:16;0.50;;;0.20;;
65289;SDS011;51893;59.754;10.110;2023-07-13T14:54:47;0.20;;;0.20;;
65289;SDS011;51893;59.754;10.110;2023-07-13T14:57:17;9.40;;;0.60;;
65289;SDS011;51893;59.754;10.110;2023-07-13T14:59:48;0.80;;;0.30;;
65289;SDS011;51893;59.754;10.110;2023-07-13T15:02:32;1.70;;;0.30;;
65289;SDS011;51893;59.754;10.110;2023-07-13T15:05:15;1.40;;;0.40;;
65289;SDS011;51893;59.754;10.110;2023-07-13T15:07:47;1.20;;;0.30;;
65289;SDS011;51893;59.754;10.110;2023-07-13T15:10:22;0.80;;;0.20;;
65289;SDS011;51893;59.754;10.110;2023-07-13T15:12:52;0.30;;;0.30;;
65289;SDS011;51893;59.754;10.110;2023-07-13T15:15:27;1.30;;;0.30;;
65289;SDS011;51893;59.754;10.110;2023-07-13T15:17:57;2.30;;;0.20;;
65289;SDS011;51893;59.754;10.110;2023-07-13T15:20:32;6.30;;;0.40;;
65289;SDS011;51893;59.754;10.110;2023-07-13T15:23:03;0.60;;;0.20;;
65289;SDS011;51893;59.754;10.110;2023-07-13T15:25:33;2.70;;;0.20;;
65289;SDS011;51893;59.754;10.110;2023-07-13T15:28:01;0.40;;;0.40;;
65289;SDS011;51893;59.754;10.110;2023-07-13T15:30:36;0.90;;;0.50;;
65289;SDS011;51893;59.754;10.110;2023-07-13T15:33:21;0.20;;;0.20;;
65289;SDS011;51893;59.754;10.110;2023-07-13T15:35:55;0.10;;;0.10;;